Tower, Minnesota
Current Conditions -  °F | °C
As of 8:54 PM on Wednesday 22 Oct 2014 (Local Time) from KCQM Reporting Station
Scattered Clouds Scattered Clouds  
Wind Chill: 52°   Ceiling: Unl
Heat Index: 52°   Visibility: 10mi
Dew Point: 39°   Wind: 8mph
Humidity: 62%   Direction: 160°SSE
Pressure: 30.01"   Gusts: NA
Location:  47.81°N, 92.27°W
Report Text: KCQM 230154Z AUTO 16007KT 10SM SCT090 11/04 A3001 RMK AO2
Loading
Personal Weather Stations






























Interactive Weather Map New forecast layout! Learn more

10-Day Weather Forecast

Advertisements
Track Severe Weather on mobile